ENTC Airport Information

Runway Information
Runway 18 Length 7848 ft width 148 ft
Elevation 13 ft Threshold 1286 ft Heading 193
Runway 36 Length 7848 ft Width 148 ft
Elevation 25 ft Threshold ft Heading 13
Airport Frequencies
Type APP Name APP Frequency 123.75 MHZ
Type ATIS Name ATIS Frequency 126.125 MHZ
Type TWR Name TWR Frequency 118.3 MHZ
Airport Navaids
Type NDB Name Kobbe Frequency 283 KHZ
Type NDB Name Kvalsund Frequency 362 KHZ
Type NDB Name Lanes Frequency 268 KHZ
Type VOR-DME Name Tromso Frequency 113800 KHZ
Airport Weather Information & NOTAM
ADDS - METARS form results

(0649 UTC 16 August 2022)
Data provider http://aviationweather.gov/metar/data/
 
METAR text: ENTC 160620Z 03003KT CAVOK 15/12 Q1008 NOSIG RMK WIND 2600FT 17024KT
Conditions at: ENTC (TROMSO/LANGNES , NO) observed 0620 UTC 16 August 2022
Temperature: 15.0°C (59°F)
Dewpoint: 12.0°C (54°F) [RH = 82%]
Pressure (altimeter): 29.76 inches Hg (1008.0 mb)
Winds: from the NNE (30 degrees) at 3 MPH (3 knots; 1.5 m/s)
Visibility: 6 or more miles (10+ km)
Ceiling: ceiling and visibility are OK
Clouds: unknown
Weather: no significant weather observed at this time

METAR text: ENTC 160550Z 00000KT CAVOK 14/12 Q1008 RMK WIND 2600FT 18022KT
Conditions at: ENTC (TROMSO/LANGNES , NO) observed 0550 UTC 16 August 2022
Temperature: 14.0°C (57°F)
Dewpoint: 12.0°C (54°F) [RH = 88%]
Pressure (altimeter): 29.76 inches Hg (1008.0 mb)
Winds: calm
Visibility: 6 or more miles (10+ km)
Ceiling: ceiling and visibility are OK
Clouds: unknown
Weather: no significant weather observed at this time

Forecast for: ENTC (TROMSO/LANGNES , NO)
Text: TAF ENTC 1606/1706 06008KT CAVOK
Forecast period: 0600 UTC 16 August 2022 to 0000 UTC 17 August 2022
Forecast type: FROM: standard forecast or significant change
Winds: from the ENE (60 degrees) at 9 MPH (8 knots; 4.1 m/s)
Visibility: 6 or more miles (10+ km)
Ceiling: unknown
Clouds: missing
Weather: NSW  (no significant weather)
Text: TEMPO 1615/1624 SHRA SCT050CB
Forecast period: 1500 UTC 16 August 2022 to 0000 UTC 17 August 2022
Forecast type: TEMPORARY: The following changes expected for less than half the time period
Visibility: missing
Ceiling: at least 12,000 feet AGL
Clouds: scattered clouds at 5000 feet AGL
Weather: SHRA  (rain showers)
Text: PROB30
Forecast period: 1700 UTC 16 August 2022 to 0000 UTC 17 August 2022
Forecast type: TEMPORARY: The following changes expected for less than half the time period
Winds: from the S (180 degrees) at 14 MPH (12 knots; 6.2 m/s)
Visibility: missing
Ceiling: unknown
Clouds: missing
Weather: TSRA  (rain associated with thunderstorm(s))
Text: TEMPO 1617/1624 18012KT TSRA
Forecast period: 0000 to 0600 UTC 17 August 2022
Forecast type: BECOMING: Conditions expected to become as follows by 0300 UTC 17 August 2022
Winds: from the S (180 degrees) at 14 MPH (12 knots; 6.2 m/s)
Visibility: 6 or more miles (10+ km)
Ceiling: unknown
Clouds: missing
Weather: NSW  (no significant weather)